createdAt,value
2018-04-19T04:28:42.665Z,13.20
2018-04-19T04:31:36.334Z,13.20
2018-04-19T04:34:10.247Z,13.20
2018-04-19T04:36:58.236Z,13.20
2018-04-19T04:39:39.499Z,13.20
2018-04-19T04:42:08.588Z,13.10
2018-04-19T04:44:43.024Z,13.10
2018-04-19T04:47:13.130Z,13.00
2018-04-19T04:49:46.619Z,13.00
2018-04-19T04:52:18.953Z,13.00
2018-04-19T04:54:49.255Z,12.90
2018-04-19T04:57:19.949Z,12.90
2018-04-19T04:59:51.421Z,13.00
2018-04-19T05:02:32.401Z,13.10
2018-04-19T05:05:05.455Z,13.10
2018-04-19T05:07:36.082Z,13.10
2018-04-19T05:25:09.563Z,13.10
2018-04-19T05:27:39.702Z,13.20
2018-04-19T05:30:12.712Z,13.30
2018-04-19T18:19:12.689Z,24.50
2018-04-19T18:21:41.589Z,24.40
2018-04-19T18:24:14.491Z,24.20
2018-04-19T18:26:43.473Z,24.10
2018-04-19T18:29:12.878Z,23.90
2018-04-19T18:31:41.719Z,23.80
2018-04-19T18:34:10.481Z,23.60
2018-04-19T18:36:40.563Z,23.40
2018-04-19T18:39:10.135Z,23.30
2018-04-19T18:41:38.912Z,23.30
2018-04-19T18:44:07.728Z,23.10
2018-04-19T18:46:37.473Z,22.90
2018-04-19T18:49:06.267Z,22.70
2018-04-19T18:51:35.234Z,22.60
2018-04-19T18:54:05.688Z,22.30
2018-04-19T18:56:35.161Z,22.20
2018-04-19T18:59:03.229Z,22.10
2018-04-19T19:01:32.034Z,21.90
2018-04-19T19:04:01.202Z,21.70
2018-04-19T19:06:29.520Z,21.60
2018-04-19T19:08:57.741Z,21.40
2018-04-19T19:11:26.871Z,21.30
2018-04-19T19:13:56.093Z,21.10
2018-04-19T19:16:25.157Z,20.90
2018-04-19T19:19:11.732Z,21.00
2018-04-19T19:21:40.037Z,21.10
2018-04-19T19:24:08.427Z,20.70
2018-04-19T19:26:38.381Z,20.60
2018-04-19T19:29:09.196Z,20.50
2018-04-19T19:31:37.782Z,20.50
2018-04-19T19:34:05.908Z,20.30
2018-04-19T19:36:35.927Z,20.20
2018-04-19T19:39:07.494Z,19.90
2018-04-19T19:41:36.471Z,20.00
2018-04-19T19:44:05.524Z,20.00
2018-04-19T19:46:33.707Z,19.90
2018-04-19T19:49:02.863Z,19.70
2018-04-19T19:51:31.424Z,19.80
2018-04-19T19:54:00.492Z,19.60
2018-04-19T19:56:28.639Z,19.20
2018-04-19T19:58:59.605Z,19.20
2018-04-19T20:01:27.857Z,19.30
2018-04-19T20:03:56.060Z,19.10
2018-04-19T20:06:24.167Z,19.20
2018-04-19T20:08:54.277Z,18.80
2018-04-19T20:11:23.976Z,18.70
2018-04-19T20:13:53.051Z,18.70
2018-04-19T20:16:21.344Z,18.80
2018-04-19T20:18:49.464Z,18.70
2018-04-19T20:21:17.540Z,18.70
2018-04-19T20:23:45.889Z,18.70
2018-04-19T20:26:15.003Z,18.50
2018-04-19T20:28:43.457Z,18.30
2018-04-19T20:31:14.240Z,18.20
2018-04-19T20:33:46.209Z,18.10
2018-04-19T20:36:15.346Z,18.30
2018-04-19T20:38:44.338Z,18.20
2018-04-19T20:41:13.131Z,18.30
2018-04-19T20:43:42.669Z,18.40
2018-04-19T20:46:10.772Z,18.30
2018-04-19T20:48:39.808Z,18.40
2018-04-19T20:51:10.805Z,18.40
2018-04-19T20:53:39.156Z,18.40
2018-04-19T20:56:08.009Z,18.10
2018-04-19T20:58:36.375Z,18.00
2018-04-19T21:01:05.228Z,17.50
2018-04-19T21:03:33.600Z,17.40
2018-04-19T21:06:01.780Z,17.30
2018-04-19T21:08:29.857Z,17.00
2018-04-19T21:10:59.664Z,17.00
2018-04-19T21:13:27.944Z,17.10
2018-04-19T21:15:56.050Z,17.00
2018-04-19T21:18:24.348Z,17.00
2018-04-19T21:20:53.590Z,16.90
2018-04-19T21:23:22.409Z,17.10
2018-04-19T21:25:50.573Z,17.00
2018-04-19T21:28:18.915Z,16.90
2018-04-19T21:30:47.666Z,16.70
2018-04-19T21:33:16.647Z,16.80
2018-04-19T21:35:45.599Z,16.60
2018-04-19T21:38:13.916Z,16.50
2018-04-19T21:40:42.453Z,16.70
2018-04-19T21:43:10.914Z,16.70
2018-04-19T21:45:39.375Z,16.70
2018-04-19T21:48:08.942Z,16.50
2018-04-19T21:50:39.680Z,16.50
2018-04-19T21:53:07.801Z,16.30
2018-04-19T21:55:36.643Z,16.40
2018-04-19T21:58:08.082Z,16.30
2018-04-19T22:00:36.939Z,16.40
2018-04-19T22:03:05.030Z,16.20
2018-04-19T22:05:35.049Z,16.40
2018-04-19T22:08:03.878Z,16.20
2018-04-19T22:10:32.084Z,16.20
2018-04-19T22:13:07.753Z,16.10
2018-04-19T22:15:35.960Z,16.10
2018-04-19T22:18:04.710Z,16.20
2018-04-19T22:20:33.081Z,16.00
2018-04-19T22:23:01.197Z,15.90
2018-04-19T22:25:29.561Z,16.00
2018-04-19T22:27:58.350Z,15.90
2018-04-19T22:30:26.424Z,15.90
2018-04-19T22:32:54.515Z,15.90
2018-04-19T22:35:22.808Z,15.70
2018-04-19T22:37:53.512Z,15.80
2018-04-19T22:40:22.563Z,15.70
2018-04-19T22:42:54.315Z,15.70
2018-04-19T22:45:23.180Z,15.70
2018-04-19T22:47:52.035Z,15.60
2018-04-19T22:50:21.807Z,15.60
2018-04-19T22:52:49.884Z,15.80
2018-04-19T22:55:18.754Z,15.80
2018-04-19T22:57:47.132Z,15.70
2018-04-19T23:00:15.416Z,15.60
2018-04-19T23:02:43.651Z,15.40
2018-04-19T23:05:14.366Z,15.40
2018-04-19T23:07:42.503Z,15.30
2018-04-19T23:10:11.349Z,15.20
2018-04-19T23:12:39.699Z,15.30
2018-04-19T23:15:07.902Z,15.10
2018-04-19T23:17:36.003Z,15.10
2018-04-19T23:20:07.394Z,15.10
2018-04-19T23:22:35.679Z,15.20
2018-04-19T23:25:03.796Z,14.80
2018-04-19T23:27:32.241Z,14.80
2018-04-19T23:30:00.323Z,14.90
2018-04-19T23:32:29.251Z,15.00
2018-04-19T23:34:58.239Z,14.90
2018-04-19T23:37:28.112Z,14.70
2018-04-19T23:39:56.384Z,14.70
2018-04-19T23:42:25.254Z,14.80
2018-04-19T23:44:53.580Z,14.90
2018-04-19T23:47:21.655Z,14.70
2018-04-19T23:49:49.885Z,14.90
2018-04-19T23:52:18.072Z,14.80
2018-04-19T23:54:46.887Z,14.70
2018-04-19T23:57:17.639Z,14.60
2018-04-19T23:59:46.500Z,14.60
